X  Fermer Données météorologiques d'aviation de Metar     EHRD Rotterdam The Hague Airport
Température
6°C Température
1°C Point de rosée
71% Humidité



Vent
16 KM/H
10 MPH
4 M/S
9 KTS



330°
NNO
Conditions actuelles

Partiellement nuageux Partiellement nuageux
Pression 1023.03 (hPa) - 30.21 (inHg)
Visibilité 6 (mile) - 9.7 (km)
Aéroport
Code de l'aéroport EHRD

Emplacement: Rotterdam The Hague Airport
Distance: 20 (km)

Metar:
EHRD 210125Z AUTO 33009KT 280V030 9999 FEW020CB SCT044 06/01 Q1023 NOSIG

Temps: 21-04-2024 01:25 CEST